Updated18/09/2018 18:30 
 

GeoURL
free counters
Scottish Weather Network UK Weather Network Cumulus Top Weather Sites

Peebles Weather - Space Weather II

Raw Data, Raw Data Expanded

Ignore low humidity and Dew Point values. Something wrong with the sensor.
Daytime temperatures are in direct sunlight so may be higher than official air temperature values.
As with any other website, we log your IP address and browser type in the server logs for diagnostic reasons. Cookies are used to record visit time and gauges preferences. No personal information is stored or processed.

All times are in BST (UTC+1) unless specified.

2018/09/18 17:20 EGPH 181720Z 22017KT 9999 FEW026 16/12 Q0997
16.2°C 0.0 mm 0.0 mm 0.0 mm 2.9 mph 11.4 mph 994.3 hPa 82% X-Ray Solar Flare Level
Planetary K-Index
Planetary K-Index History
Station Warn Rain Snow Flood Wind Ltng Heat Cold Glob Moon Temp Rain 1h Rain Tue Rain 24h Wind 10m Gust Pressure Hum Proton Levels
Lost sensor contact!!! Wind
0.286 m Waxing Gibbous Comfortable F1-E F: A: Kp:0 SSN:0

Space Weather II

Epilepsy warning: One of the animated images on this page has flickering which may react with people with photosensitive epilepsy.
Currently under development.
Large 1 day K-Index chart inc last 6 days. 600x420

Large plot of K-Index 4 months. 811x1028
Large magnetosphere simulation 1024x1024
Solar image gallery D-region absorption 850x475

 

XHTML 1.1 | CSS